map of MPN home
MPN - Airport
Location
City:  Mount Pleasant, Falkland Islands
Name:Mount Pleasant International Airport
Old (Alt.):RAF Mount Pleasant
ICAO:EGYP
IATA:MPN

Details
Type:Airport (Aerodrome, Airfield)
Use:Public/Civil, Military, International (customs port of entry)
Latitude:5149'22"S (-51.822776)
Longitude:5826'50"W (-58.447221)
Datum:WGS 1984
Elevation:244 ft (74 m)
Variation:3.21E (WMM2015v2 magnetic declination)
-0.07 annual change
Runways:2
Longest:8497 × 150 ft (2590 × 45.5 m), paved

Time
Time Zone:UTC-4 (DST-3)

Weather
METAR:EGYP 041350Z 25019KT CAVOK 22/09 Q1012 BLU NOSIG
TAF:EGYP 041345Z 0415/0509 24018KT CAVOK
BECMG 0419/0422 28014KT
BECMG 0503/0506 32018KT PROB40
TEMPO 0507/0509 33022G32KT

Related Locations
Nearby:
Farthest:OHE: 12347 mi / 19871 km
Mohe [Mohe Gulian Airport], 23, CN

Find:

   beyond  
but within

Other Information
Maps:
NOTAMs:
Links:
Sources:

  
  • flag of Falkland Islands
  

Sectional Chart

Flight Planning
at skyvector.com

Satellite Image

Google Maps Satellite view

 

Copyright © 2004-2019 Karl L. Swartz. All rights reserved.
The Great Circle Mapper name and logo are trademarks of the Great Circle Mapper.
All other trademarks mentioned herein belong to their respective owners.
Please see credits for attibutions and further copyright information.

  Follow gcmap on Facebook Follow gcmap on Twitter GCmap on LinkedIn

hCard Microformat

Geo Microformat